sensor_id;sensor_type;location;lat;lon;timestamp;P1;durP1;ratioP1;P2;durP2;ratioP2
17864;SDS011;9058;52.018;4.202;2023-11-21T00:00:21;9.65;;;4.65;;
17864;SDS011;9058;52.018;4.202;2023-11-21T00:02:47;8.80;;;2.50;;
17864;SDS011;9058;52.018;4.202;2023-11-21T00:05:14;10.43;;;3.22;;
17864;SDS011;9058;52.018;4.202;2023-11-21T00:07:41;6.90;;;2.88;;
17864;SDS011;9058;52.018;4.202;2023-11-21T00:10:08;8.93;;;2.70;;
17864;SDS011;9058;52.018;4.202;2023-11-21T00:12:36;11.80;;;2.70;;
17864;SDS011;9058;52.018;4.202;2023-11-21T00:15:03;7.40;;;2.72;;
17864;SDS011;9058;52.018;4.202;2023-11-21T00:17:30;7.30;;;2.97;;
17864;SDS011;9058;52.018;4.202;2023-11-21T00:19:57;7.47;;;2.80;;
17864;SDS011;9058;52.018;4.202;2023-11-21T00:22:24;7.80;;;3.58;;
17864;SDS011;9058;52.018;4.202;2023-11-21T00:24:50;13.52;;;3.67;;
17864;SDS011;9058;52.018;4.202;2023-11-21T00:27:17;8.13;;;3.65;;
17864;SDS011;9058;52.018;4.202;2023-11-21T00:29:45;7.05;;;2.75;;
17864;SDS011;9058;52.018;4.202;2023-11-21T00:32:11;6.28;;;2.45;;
17864;SDS011;9058;52.018;4.202;2023-11-21T00:34:38;6.32;;;2.60;;
17864;SDS011;9058;52.018;4.202;2023-11-21T00:37:05;4.78;;;2.00;;
17864;SDS011;9058;52.018;4.202;2023-11-21T00:39:32;4.43;;;1.75;;
17864;SDS011;9058;52.018;4.202;2023-11-21T00:42:00;5.10;;;1.88;;
17864;SDS011;9058;52.018;4.202;2023-11-21T00:44:26;4.35;;;2.67;;
17864;SDS011;9058;52.018;4.202;2023-11-21T00:46:54;4.43;;;1.58;;
17864;SDS011;9058;52.018;4.202;2023-11-21T00:49:21;3.58;;;1.65;;
17864;SDS011;9058;52.018;4.202;2023-11-21T00:51:47;4.38;;;1.50;;
17864;SDS011;9058;52.018;4.202;2023-11-21T00:54:13;6.10;;;2.00;;
17864;SDS011;9058;52.018;4.202;2023-11-21T00:56:42;6.85;;;2.85;;
17864;SDS011;9058;52.018;4.202;2023-11-21T00:59:08;5.45;;;1.50;;
17864;SDS011;9058;52.018;4.202;2023-11-21T01:01:35;3.13;;;1.50;;
17864;SDS011;9058;52.018;4.202;2023-11-21T01:04:05;5.82;;;1.80;;
17864;SDS011;9058;52.018;4.202;2023-11-21T01:06:32;4.00;;;1.40;;
17864;SDS011;9058;52.018;4.202;2023-11-21T01:08:59;3.97;;;1.80;;
17864;SDS011;9058;52.018;4.202;2023-11-21T01:11:25;4.60;;;1.67;;
17864;SDS011;9058;52.018;4.202;2023-11-21T01:13:53;3.42;;;1.40;;
17864;SDS011;9058;52.018;4.202;2023-11-21T01:16:20;5.88;;;1.58;;
17864;SDS011;9058;52.018;4.202;2023-11-21T01:18:46;2.75;;;1.55;;
17864;SDS011;9058;52.018;4.202;2023-11-21T01:21:14;3.10;;;1.60;;
17864;SDS011;9058;52.018;4.202;2023-11-21T01:23:40;8.60;;;1.88;;
17864;SDS011;9058;52.018;4.202;2023-11-21T01:26:06;3.28;;;1.55;;
17864;SDS011;9058;52.018;4.202;2023-11-21T01:28:34;4.68;;;1.60;;
17864;SDS011;9058;52.018;4.202;2023-11-21T01:31:00;2.97;;;1.33;;
17864;SDS011;9058;52.018;4.202;2023-11-21T01:33:27;5.97;;;1.65;;
17864;SDS011;9058;52.018;4.202;2023-11-21T01:35:53;3.33;;;1.25;;
17864;SDS011;9058;52.018;4.202;2023-11-21T01:38:22;5.43;;;1.25;;
17864;SDS011;9058;52.018;4.202;2023-11-21T01:40:48;4.25;;;1.60;;
17864;SDS011;9058;52.018;4.202;2023-11-21T01:43:14;4.75;;;1.23;;
17864;SDS011;9058;52.018;4.202;2023-11-21T01:45:41;2.70;;;1.10;;
17864;SDS011;9058;52.018;4.202;2023-11-21T01:48:10;4.28;;;1.48;;
17864;SDS011;9058;52.018;4.202;2023-11-21T01:50:37;5.20;;;1.73;;
17864;SDS011;9058;52.018;4.202;2023-11-21T01:53:05;4.38;;;1.15;;
17864;SDS011;9058;52.018;4.202;2023-11-21T01:55:33;4.13;;;1.40;;
17864;SDS011;9058;52.018;4.202;2023-11-21T01:57:59;4.82;;;1.60;;
17864;SDS011;9058;52.018;4.202;2023-11-21T02:00:26;5.82;;;1.55;;
17864;SDS011;9058;52.018;4.202;2023-11-21T02:02:54;3.22;;;1.73;;
17864;SDS011;9058;52.018;4.202;2023-11-21T02:05:21;8.50;;;2.20;;
17864;SDS011;9058;52.018;4.202;2023-11-21T02:07:48;3.35;;;1.80;;
17864;SDS011;9058;52.018;4.202;2023-11-21T02:10:14;4.07;;;2.00;;
17864;SDS011;9058;52.018;4.202;2023-11-21T02:12:45;7.80;;;2.30;;
17864;SDS011;9058;52.018;4.202;2023-11-21T02:15:11;4.13;;;2.55;;
17864;SDS011;9058;52.018;4.202;2023-11-21T02:17:45;7.78;;;2.35;;
17864;SDS011;9058;52.018;4.202;2023-11-21T02:20:12;4.15;;;2.78;;
17864;SDS011;9058;52.018;4.202;2023-11-21T02:22:40;4.30;;;2.42;;
17864;SDS011;9058;52.018;4.202;2023-11-21T02:25:08;4.38;;;2.55;;
17864;SDS011;9058;52.018;4.202;2023-11-21T02:27:34;6.95;;;3.22;;
17864;SDS011;9058;52.018;4.202;2023-11-21T02:30:02;7.00;;;2.70;;
17864;SDS011;9058;52.018;4.202;2023-11-21T02:32:29;7.28;;;2.28;;
17864;SDS011;9058;52.018;4.202;2023-11-21T02:34:56;7.15;;;2.67;;
17864;SDS011;9058;52.018;4.202;2023-11-21T02:37:26;4.97;;;1.80;;
17864;SDS011;9058;52.018;4.202;2023-11-21T02:39:52;5.05;;;2.60;;
17864;SDS011;9058;52.018;4.202;2023-11-21T02:42:23;7.78;;;2.58;;
17864;SDS011;9058;52.018;4.202;2023-11-21T02:44:49;10.00;;;3.33;;
17864;SDS011;9058;52.018;4.202;2023-11-21T02:47:15;8.32;;;2.65;;
17864;SDS011;9058;52.018;4.202;2023-11-21T02:49:42;8.43;;;3.28;;
17864;SDS011;9058;52.018;4.202;2023-11-21T02:52:08;8.30;;;3.30;;
17864;SDS011;9058;52.018;4.202;2023-11-21T02:54:35;6.28;;;2.42;;
17864;SDS011;9058;52.018;4.202;2023-11-21T02:57:02;4.38;;;2.00;;
17864;SDS011;9058;52.018;4.202;2023-11-21T02:59:30;7.75;;;2.33;;
17864;SDS011;9058;52.018;4.202;2023-11-21T03:01:56;3.85;;;2.53;;
17864;SDS011;9058;52.018;4.202;2023-11-21T03:04:23;4.03;;;2.30;;
17864;SDS011;9058;52.018;4.202;2023-11-21T03:06:51;10.20;;;2.95;;
17864;SDS011;9058;52.018;4.202;2023-11-21T03:09:17;3.58;;;1.90;;
17864;SDS011;9058;52.018;4.202;2023-11-21T03:11:43;3.30;;;1.90;;
17864;SDS011;9058;52.018;4.202;2023-11-21T03:14:10;2.50;;;1.98;;
17864;SDS011;9058;52.018;4.202;2023-11-21T03:16:38;4.78;;;1.90;;
17864;SDS011;9058;52.018;4.202;2023-11-21T03:19:06;3.40;;;1.60;;
17864;SDS011;9058;52.018;4.202;2023-11-21T03:21:33;4.57;;;1.75;;
17864;SDS011;9058;52.018;4.202;2023-11-21T03:23:59;2.58;;;1.52;;
17864;SDS011;9058;52.018;4.202;2023-11-21T03:26:26;4.53;;;1.88;;
17864;SDS011;9058;52.018;4.202;2023-11-21T03:28:52;3.90;;;1.45;;
17864;SDS011;9058;52.018;4.202;2023-11-21T03:31:19;2.92;;;1.02;;
17864;SDS011;9058;52.018;4.202;2023-11-21T03:33:47;2.95;;;1.40;;
17864;SDS011;9058;52.018;4.202;2023-11-21T03:36:13;9.77;;;1.75;;
17864;SDS011;9058;52.018;4.202;2023-11-21T03:38:43;2.80;;;1.52;;
17864;SDS011;9058;52.018;4.202;2023-11-21T03:41:09;2.75;;;1.00;;
17864;SDS011;9058;52.018;4.202;2023-11-21T03:43:37;3.67;;;0.98;;
17864;SDS011;9058;52.018;4.202;2023-11-21T03:46:04;2.63;;;0.93;;
17864;SDS011;9058;52.018;4.202;2023-11-21T03:48:30;4.28;;;1.42;;
17864;SDS011;9058;52.018;4.202;2023-11-21T03:50:59;2.25;;;1.00;;
17864;SDS011;9058;52.018;4.202;2023-11-21T03:53:25;2.03;;;1.15;;
17864;SDS011;9058;52.018;4.202;2023-11-21T03:55:52;3.50;;;1.13;;
17864;SDS011;9058;52.018;4.202;2023-11-21T03:58:18;5.38;;;1.20;;
17864;SDS011;9058;52.018;4.202;2023-11-21T04:00:45;2.60;;;1.20;;
17864;SDS011;9058;52.018;4.202;2023-11-21T04:03:12;2.92;;;1.27;;
17864;SDS011;9058;52.018;4.202;2023-11-21T04:05:39;3.40;;;1.50;;
17864;SDS011;9058;52.018;4.202;2023-11-21T04:08:07;1.40;;;0.93;;
17864;SDS011;9058;52.018;4.202;2023-11-21T04:10:33;1.10;;;0.80;;
17864;SDS011;9058;52.018;4.202;2023-11-21T04:13:01;1.60;;;1.05;;
17864;SDS011;9058;52.018;4.202;2023-11-21T04:15:27;2.55;;;0.93;;
17864;SDS011;9058;52.018;4.202;2023-11-21T04:17:54;3.40;;;1.08;;
17864;SDS011;9058;52.018;4.202;2023-11-21T04:20:21;1.27;;;0.90;;
17864;SDS011;9058;52.018;4.202;2023-11-21T04:22:48;1.17;;;0.88;;
17864;SDS011;9058;52.018;4.202;2023-11-21T04:25:17;2.67;;;0.93;;
17864;SDS011;9058;52.018;4.202;2023-11-21T04:27:44;1.20;;;0.90;;
17864;SDS011;9058;52.018;4.202;2023-11-21T04:30:10;1.42;;;0.88;;
17864;SDS011;9058;52.018;4.202;2023-11-21T04:32:37;1.83;;;0.90;;
17864;SDS011;9058;52.018;4.202;2023-11-21T04:35:04;1.50;;;0.82;;
17864;SDS011;9058;52.018;4.202;2023-11-21T04:37:30;2.03;;;1.05;;
17864;SDS011;9058;52.018;4.202;2023-11-21T04:39:57;2.88;;;1.00;;
17864;SDS011;9058;52.018;4.202;2023-11-21T04:42:24;3.70;;;1.10;;
17864;SDS011;9058;52.018;4.202;2023-11-21T04:44:51;2.53;;;1.05;;
17864;SDS011;9058;52.018;4.202;2023-11-21T04:47:18;2.40;;;0.85;;
17864;SDS011;9058;52.018;4.202;2023-11-21T04:49:45;2.78;;;0.90;;
17864;SDS011;9058;52.018;4.202;2023-11-21T04:52:13;2.15;;;0.82;;
17864;SDS011;9058;52.018;4.202;2023-11-21T04:54:39;1.95;;;0.90;;
17864;SDS011;9058;52.018;4.202;2023-11-21T04:57:05;2.38;;;0.70;;
17864;SDS011;9058;52.018;4.202;2023-11-21T04:59:33;1.33;;;0.47;;
17864;SDS011;9058;52.018;4.202;2023-11-21T05:02:00;2.88;;;0.60;;
17864;SDS011;9058;52.018;4.202;2023-11-21T05:04:26;1.75;;;0.50;;
17864;SDS011;9058;52.018;4.202;2023-11-21T05:06:52;2.55;;;0.60;;
17864;SDS011;9058;52.018;4.202;2023-11-21T05:09:19;2.30;;;0.52;;
17864;SDS011;9058;52.018;4.202;2023-11-21T05:11:47;0.40;;;0.40;;
17864;SDS011;9058;52.018;4.202;2023-11-21T05:14:13;1.63;;;0.47;;
17864;SDS011;9058;52.018;4.202;2023-11-21T05:16:41;0.95;;;0.50;;
17864;SDS011;9058;52.018;4.202;2023-11-21T05:19:07;1.50;;;0.50;;
17864;SDS011;9058;52.018;4.202;2023-11-21T05:21:35;1.38;;;0.82;;
17864;SDS011;9058;52.018;4.202;2023-11-21T05:24:01;1.48;;;0.50;;
17864;SDS011;9058;52.018;4.202;2023-11-21T05:26:30;2.88;;;0.80;;
17864;SDS011;9058;52.018;4.202;2023-11-21T05:28:56;1.55;;;0.82;;
17864;SDS011;9058;52.018;4.202;2023-11-21T05:31:23;2.00;;;1.15;;
17864;SDS011;9058;52.018;4.202;2023-11-21T05:33:50;2.03;;;1.05;;
17864;SDS011;9058;52.018;4.202;2023-11-21T05:36:17;1.55;;;1.17;;
17864;SDS011;9058;52.018;4.202;2023-11-21T05:38:43;2.58;;;1.35;;
17864;SDS011;9058;52.018;4.202;2023-11-21T05:41:09;2.75;;;1.58;;
17864;SDS011;9058;52.018;4.202;2023-11-21T05:43:38;2.53;;;1.30;;
17864;SDS011;9058;52.018;4.202;2023-11-21T05:46:05;3.50;;;1.42;;
17864;SDS011;9058;52.018;4.202;2023-11-21T05:48:32;2.10;;;0.85;;
17864;SDS011;9058;52.018;4.202;2023-11-21T05:50:59;6.43;;;1.70;;
17864;SDS011;9058;52.018;4.202;2023-11-21T05:53:26;1.38;;;1.10;;
17864;SDS011;9058;52.018;4.202;2023-11-21T05:55:53;5.72;;;1.50;;
17864;SDS011;9058;52.018;4.202;2023-11-21T05:58:19;4.13;;;1.33;;
17864;SDS011;9058;52.018;4.202;2023-11-21T06:00:45;2.47;;;1.27;;
17864;SDS011;9058;52.018;4.202;2023-11-21T06:03:13;3.65;;;1.30;;
17864;SDS011;9058;52.018;4.202;2023-11-21T06:05:39;1.40;;;0.90;;
17864;SDS011;9058;52.018;4.202;2023-11-21T06:08:07;1.35;;;0.70;;
17864;SDS011;9058;52.018;4.202;2023-11-21T06:10:33;3.25;;;0.98;;
17864;SDS011;9058;52.018;4.202;2023-11-21T06:13:00;3.17;;;0.90;;
17864;SDS011;9058;52.018;4.202;2023-11-21T06:15:26;1.63;;;0.88;;
17864;SDS011;9058;52.018;4.202;2023-11-21T06:17:52;3.47;;;1.08;;
17864;SDS011;9058;52.018;4.202;2023-11-21T06:20:19;2.03;;;0.80;;
17864;SDS011;9058;52.018;4.202;2023-11-21T06:22:46;5.07;;;1.08;;
17864;SDS011;9058;52.018;4.202;2023-11-21T06:25:16;2.25;;;1.08;;
17864;SDS011;9058;52.018;4.202;2023-11-21T06:27:43;2.65;;;0.70;;
17864;SDS011;9058;52.018;4.202;2023-11-21T06:30:10;2.80;;;0.90;;
17864;SDS011;9058;52.018;4.202;2023-11-21T06:32:37;2.20;;;1.10;;
17864;SDS011;9058;52.018;4.202;2023-11-21T06:35:03;3.70;;;1.10;;
17864;SDS011;9058;52.018;4.202;2023-11-21T06:37:30;5.43;;;1.00;;
17864;SDS011;9058;52.018;4.202;2023-11-21T06:39:57;6.18;;;1.60;;
17864;SDS011;9058;52.018;4.202;2023-11-21T06:42:25;7.40;;;1.60;;
17864;SDS011;9058;52.018;4.202;2023-11-21T06:44:54;10.65;;;2.20;;
17864;SDS011;9058;52.018;4.202;2023-11-21T06:47:22;6.03;;;2.20;;
17864;SDS011;9058;52.018;4.202;2023-11-21T06:49:50;13.95;;;2.90;;
17864;SDS011;9058;52.018;4.202;2023-11-21T06:52:16;13.18;;;4.05;;
17864;SDS011;9058;52.018;4.202;2023-11-21T06:54:43;11.02;;;3.20;;
17864;SDS011;9058;52.018;4.202;2023-11-21T06:57:10;12.10;;;3.55;;
17864;SDS011;9058;52.018;4.202;2023-11-21T06:59:39;14.57;;;4.43;;
17864;SDS011;9058;52.018;4.202;2023-11-21T07:02:06;11.25;;;3.38;;
17864;SDS011;9058;52.018;4.202;2023-11-21T07:04:32;10.85;;;3.60;;
17864;SDS011;9058;52.018;4.202;2023-11-21T07:06:58;13.48;;;4.70;;
17864;SDS011;9058;52.018;4.202;2023-11-21T07:09:25;10.82;;;3.60;;
17864;SDS011;9058;52.018;4.202;2023-11-21T07:11:52;13.23;;;3.28;;
17864;SDS011;9058;52.018;4.202;2023-11-21T07:14:19;11.73;;;4.22;;
17864;SDS011;9058;52.018;4.202;2023-11-21T07:16:48;15.27;;;3.55;;
17864;SDS011;9058;52.018;4.202;2023-11-21T07:19:16;13.30;;;3.08;;
17864;SDS011;9058;52.018;4.202;2023-11-21T07:21:42;13.73;;;3.47;;
17864;SDS011;9058;52.018;4.202;2023-11-21T07:24:08;12.80;;;2.47;;
17864;SDS011;9058;52.018;4.202;2023-11-21T07:26:36;12.10;;;2.78;;
17864;SDS011;9058;52.018;4.202;2023-11-21T07:29:03;10.27;;;2.85;;
17864;SDS011;9058;52.018;4.202;2023-11-21T07:31:31;13.68;;;2.80;;
17864;SDS011;9058;52.018;4.202;2023-11-21T07:34:00;9.05;;;3.10;;
17864;SDS011;9058;52.018;4.202;2023-11-21T07:36:27;9.73;;;2.90;;
17864;SDS011;9058;52.018;4.202;2023-11-21T07:38:54;15.38;;;2.80;;
17864;SDS011;9058;52.018;4.202;2023-11-21T07:41:21;9.80;;;3.13;;
17864;SDS011;9058;52.018;4.202;2023-11-21T07:43:47;8.55;;;2.83;;
17864;SDS011;9058;52.018;4.202;2023-11-21T07:46:14;10.60;;;2.33;;
17864;SDS011;9058;52.018;4.202;2023-11-21T07:48:40;7.72;;;2.22;;
17864;SDS011;9058;52.018;4.202;2023-11-21T07:51:08;5.47;;;2.08;;
17864;SDS011;9058;52.018;4.202;2023-11-21T07:53:36;8.23;;;2.05;;
17864;SDS011;9058;52.018;4.202;2023-11-21T07:56:02;6.10;;;2.35;;
17864;SDS011;9058;52.018;4.202;2023-11-21T07:58:30;6.35;;;1.83;;
17864;SDS011;9058;52.018;4.202;2023-11-21T08:00:58;4.60;;;2.22;;
17864;SDS011;9058;52.018;4.202;2023-11-21T08:03:25;7.50;;;2.53;;
17864;SDS011;9058;52.018;4.202;2023-11-21T08:05:54;10.95;;;2.30;;
17864;SDS011;9058;52.018;4.202;2023-11-21T08:08:23;11.00;;;2.88;;
17864;SDS011;9058;52.018;4.202;2023-11-21T08:10:49;10.48;;;2.35;;
17864;SDS011;9058;52.018;4.202;2023-11-21T08:13:21;9.40;;;2.38;;
17864;SDS011;9058;52.018;4.202;2023-11-21T08:15:48;9.93;;;2.20;;
17864;SDS011;9058;52.018;4.202;2023-11-21T08:18:14;8.82;;;2.85;;
17864;SDS011;9058;52.018;4.202;2023-11-21T08:20:42;6.82;;;2.28;;
17864;SDS011;9058;52.018;4.202;2023-11-21T08:23:08;6.90;;;2.58;;
17864;SDS011;9058;52.018;4.202;2023-11-21T08:25:37;9.65;;;2.75;;
17864;SDS011;9058;52.018;4.202;2023-11-21T08:28:03;10.35;;;2.95;;
17864;SDS011;9058;52.018;4.202;2023-11-21T08:30:30;8.32;;;2.78;;
17864;SDS011;9058;52.018;4.202;2023-11-21T08:32:57;9.30;;;2.78;;
17864;SDS011;9058;52.018;4.202;2023-11-21T08:35:23;7.13;;;2.75;;
17864;SDS011;9058;52.018;4.202;2023-11-21T08:37:50;11.25;;;2.60;;
17864;SDS011;9058;52.018;4.202;2023-11-21T08:40:17;6.15;;;2.53;;
17864;SDS011;9058;52.018;4.202;2023-11-21T08:42:45;6.80;;;2.55;;
17864;SDS011;9058;52.018;4.202;2023-11-21T08:45:13;6.72;;;3.40;;
17864;SDS011;9058;52.018;4.202;2023-11-21T08:47:39;10.15;;;2.45;;
17864;SDS011;9058;52.018;4.202;2023-11-21T08:50:06;4.95;;;2.00;;
17864;SDS011;9058;52.018;4.202;2023-11-21T08:52:32;12.85;;;2.50;;
17864;SDS011;9058;52.018;4.202;2023-11-21T08:55:02;7.63;;;2.55;;
17864;SDS011;9058;52.018;4.202;2023-11-21T08:57:32;7.47;;;3.08;;
17864;SDS011;9058;52.018;4.202;2023-11-21T09:00:01;7.38;;;2.03;;
17864;SDS011;9058;52.018;4.202;2023-11-21T09:02:28;6.90;;;2.33;;
17864;SDS011;9058;52.018;4.202;2023-11-21T09:04:54;5.07;;;2.10;;
17864;SDS011;9058;52.018;4.202;2023-11-21T09:07:21;6.13;;;2.15;;
17864;SDS011;9058;52.018;4.202;2023-11-21T09:09:51;9.25;;;2.20;;
17864;SDS011;9058;52.018;4.202;2023-11-21T09:12:18;6.60;;;2.00;;
17864;SDS011;9058;52.018;4.202;2023-11-21T09:14:45;4.90;;;1.98;;
17864;SDS011;9058;52.018;4.202;2023-11-21T09:17:14;4.47;;;1.42;;
17864;SDS011;9058;52.018;4.202;2023-11-21T09:19:41;4.95;;;1.50;;
17864;SDS011;9058;52.018;4.202;2023-11-21T09:22:12;9.65;;;2.08;;
17864;SDS011;9058;52.018;4.202;2023-11-21T09:24:39;6.85;;;2.33;;
17864;SDS011;9058;52.018;4.202;2023-11-21T09:27:06;5.80;;;1.40;;
17864;SDS011;9058;52.018;4.202;2023-11-21T09:29:32;7.38;;;1.88;;
17864;SDS011;9058;52.018;4.202;2023-11-21T09:31:58;6.72;;;1.88;;
17864;SDS011;9058;52.018;4.202;2023-11-21T09:34:27;4.97;;;1.90;;
17864;SDS011;9058;52.018;4.202;2023-11-21T09:36:54;5.72;;;2.00;;
17864;SDS011;9058;52.018;4.202;2023-11-21T09:39:20;6.07;;;2.00;;
17864;SDS011;9058;52.018;4.202;2023-11-21T09:41:49;3.95;;;1.60;;
17864;SDS011;9058;52.018;4.202;2023-11-21T09:44:17;2.63;;;1.35;;
17864;SDS011;9058;52.018;4.202;2023-11-21T09:46:44;4.22;;;1.73;;
17864;SDS011;9058;52.018;4.202;2023-11-21T09:49:15;4.35;;;1.65;;
17864;SDS011;9058;52.018;4.202;2023-11-21T09:51:48;3.97;;;1.50;;
17864;SDS011;9058;52.018;4.202;2023-11-21T09:54:16;3.53;;;1.77;;
17864;SDS011;9058;52.018;4.202;2023-11-21T09:56:44;4.57;;;1.85;;
17864;SDS011;9058;52.018;4.202;2023-11-21T09:59:12;3.38;;;1.60;;
17864;SDS011;9058;52.018;4.202;2023-11-21T10:01:40;5.50;;;1.60;;
17864;SDS011;9058;52.018;4.202;2023-11-21T10:04:07;8.05;;;2.00;;
17864;SDS011;9058;52.018;4.202;2023-11-21T10:06:37;3.88;;;1.83;;
17864;SDS011;9058;52.018;4.202;2023-11-21T10:09:07;6.20;;;2.58;;
17864;SDS011;9058;52.018;4.202;2023-11-21T10:11:38;4.30;;;2.30;;
17864;SDS011;9058;52.018;4.202;2023-11-21T10:14:06;6.38;;;2.40;;
17864;SDS011;9058;52.018;4.202;2023-11-21T10:16:35;6.43;;;2.38;;
17864;SDS011;9058;52.018;4.202;2023-11-21T10:19:02;7.30;;;2.67;;
17864;SDS011;9058;52.018;4.202;2023-11-21T10:21:32;5.60;;;1.92;;
17864;SDS011;9058;52.018;4.202;2023-11-21T10:23:58;7.10;;;2.38;;
17864;SDS011;9058;52.018;4.202;2023-11-21T10:26:26;6.13;;;2.47;;
17864;SDS011;9058;52.018;4.202;2023-11-21T10:28:57;4.30;;;2.55;;
17864;SDS011;9058;52.018;4.202;2023-11-21T10:31:23;5.47;;;2.67;;
17864;SDS011;9058;52.018;4.202;2023-11-21T10:33:50;5.68;;;2.58;;
17864;SDS011;9058;52.018;4.202;2023-11-21T10:36:24;7.00;;;3.15;;
17864;SDS011;9058;52.018;4.202;2023-11-21T10:38:51;6.15;;;2.70;;
17864;SDS011;9058;52.018;4.202;2023-11-21T10:41:18;3.95;;;2.60;;
17864;SDS011;9058;52.018;4.202;2023-11-21T10:43:46;6.43;;;2.35;;
17864;SDS011;9058;52.018;4.202;2023-11-21T10:46:13;5.82;;;2.50;;
17864;SDS011;9058;52.018;4.202;2023-11-21T10:48:41;7.13;;;2.88;;
17864;SDS011;9058;52.018;4.202;2023-11-21T10:51:08;5.55;;;2.53;;
17864;SDS011;9058;52.018;4.202;2023-11-21T10:53:37;6.43;;;2.88;;
17864;SDS011;9058;52.018;4.202;2023-11-21T10:56:05;4.53;;;2.78;;
17864;SDS011;9058;52.018;4.202;2023-11-21T10:58:32;6.82;;;2.90;;
17864;SDS011;9058;52.018;4.202;2023-11-21T11:01:01;4.35;;;2.53;;
17864;SDS011;9058;52.018;4.202;2023-11-21T11:03:29;6.70;;;2.67;;
17864;SDS011;9058;52.018;4.202;2023-11-21T11:05:55;4.43;;;3.30;;
17864;SDS011;9058;52.018;4.202;2023-11-21T11:08:23;5.82;;;2.75;;
17864;SDS011;9058;52.018;4.202;2023-11-21T11:10:51;4.45;;;2.92;;
17864;SDS011;9058;52.018;4.202;2023-11-21T11:13:18;5.05;;;3.05;;
17864;SDS011;9058;52.018;4.202;2023-11-21T11:15:45;5.18;;;3.25;;
17864;SDS011;9058;52.018;4.202;2023-11-21T11:18:14;4.68;;;3.10;;
17864;SDS011;9058;52.018;4.202;2023-11-21T11:20:42;6.32;;;3.28;;
17864;SDS011;9058;52.018;4.202;2023-11-21T11:23:13;7.28;;;3.58;;
17864;SDS011;9058;52.018;4.202;2023-11-21T11:25:49;4.53;;;3.53;;
17864;SDS011;9058;52.018;4.202;2023-11-21T11:28:19;7.35;;;3.00;;
17864;SDS011;9058;52.018;4.202;2023-11-21T11:30:50;8.18;;;4.18;;
17864;SDS011;9058;52.018;4.202;2023-11-21T11:33:24;6.03;;;3.75;;
17864;SDS011;9058;52.018;4.202;2023-11-21T11:35:54;7.20;;;3.65;;
17864;SDS011;9058;52.018;4.202;2023-11-21T11:38:23;5.90;;;3.75;;
17864;SDS011;9058;52.018;4.202;2023-11-21T11:40:52;6.88;;;3.63;;
17864;SDS011;9058;52.018;4.202;2023-11-21T11:43:24;7.65;;;3.80;;
17864;SDS011;9058;52.018;4.202;2023-11-21T11:45:51;9.07;;;4.32;;
17864;SDS011;9058;52.018;4.202;2023-11-21T11:48:19;7.80;;;4.65;;
17864;SDS011;9058;52.018;4.202;2023-11-21T11:51:02;7.28;;;4.32;;
17864;SDS011;9058;52.018;4.202;2023-11-21T11:53:33;4.57;;;3.53;;
17864;SDS011;9058;52.018;4.202;2023-11-21T11:56:07;8.02;;;3.95;;
17864;SDS011;9058;52.018;4.202;2023-11-21T11:58:46;7.22;;;4.30;;
17864;SDS011;9058;52.018;4.202;2023-11-21T12:01:13;9.10;;;4.65;;
17864;SDS011;9058;52.018;4.202;2023-11-21T12:03:40;7.05;;;4.45;;
17864;SDS011;9058;52.018;4.202;2023-11-21T12:06:08;8.02;;;4.03;;
17864;SDS011;9058;52.018;4.202;2023-11-21T12:08:36;9.13;;;4.10;;
17864;SDS011;9058;52.018;4.202;2023-11-21T12:11:03;9.30;;;3.63;;
17864;SDS011;9058;52.018;4.202;2023-11-21T12:13:29;6.10;;;3.20;;
17864;SDS011;9058;52.018;4.202;2023-11-21T12:15:56;5.28;;;3.67;;
17864;SDS011;9058;52.018;4.202;2023-11-21T12:18:23;3.25;;;2.92;;
17864;SDS011;9058;52.018;4.202;2023-11-21T12:20:51;3.05;;;2.45;;
17864;SDS011;9058;52.018;4.202;2023-11-21T12:23:19;3.63;;;2.63;;
17864;SDS011;9058;52.018;4.202;2023-11-21T12:25:46;4.13;;;3.03;;
17864;SDS011;9058;52.018;4.202;2023-11-21T12:28:12;3.03;;;2.60;;
17864;SDS011;9058;52.018;4.202;2023-11-21T12:30:39;4.60;;;3.00;;
17864;SDS011;9058;52.018;4.202;2023-11-21T12:33:06;3.05;;;2.65;;
17864;SDS011;9058;52.018;4.202;2023-11-21T12:35:34;4.47;;;2.85;;
17864;SDS011;9058;52.018;4.202;2023-11-21T12:38:01;3.60;;;2.53;;
17864;SDS011;9058;52.018;4.202;2023-11-21T12:40:30;3.85;;;2.60;;
17864;SDS011;9058;52.018;4.202;2023-11-21T12:42:56;4.22;;;2.78;;
17864;SDS011;9058;52.018;4.202;2023-11-21T12:45:24;4.55;;;2.30;;
17864;SDS011;9058;52.018;4.202;2023-11-21T12:47:54;3.83;;;2.88;;
17864;SDS011;9058;52.018;4.202;2023-11-21T12:50:22;6.03;;;3.45;;
17864;SDS011;9058;52.018;4.202;2023-11-21T12:52:50;3.35;;;3.05;;
17864;SDS011;9058;52.018;4.202;2023-11-21T12:55:19;3.70;;;2.60;;
17864;SDS011;9058;52.018;4.202;2023-11-21T12:57:49;3.25;;;2.40;;
17864;SDS011;9058;52.018;4.202;2023-11-21T13:00:17;10.52;;;2.88;;
17864;SDS011;9058;52.018;4.202;2023-11-21T13:02:54;4.03;;;2.05;;
17864;SDS011;9058;52.018;4.202;2023-11-21T13:05:23;4.65;;;1.92;;
17864;SDS011;9058;52.018;4.202;2023-11-21T13:07:50;1.80;;;1.63;;
17864;SDS011;9058;52.018;4.202;2023-11-21T13:10:19;2.58;;;2.13;;
17864;SDS011;9058;52.018;4.202;2023-11-21T13:12:55;3.40;;;2.00;;
17864;SDS011;9058;52.018;4.202;2023-11-21T13:15:23;2.78;;;2.08;;
17864;SDS011;9058;52.018;4.202;2023-11-21T13:17:50;2.83;;;2.05;;
17864;SDS011;9058;52.018;4.202;2023-11-21T13:20:17;5.15;;;2.05;;
17864;SDS011;9058;52.018;4.202;2023-11-21T13:22:47;2.70;;;2.50;;
17864;SDS011;9058;52.018;4.202;2023-11-21T13:25:14;3.55;;;2.30;;
17864;SDS011;9058;52.018;4.202;2023-11-21T13:27:42;5.30;;;2.80;;
17864;SDS011;9058;52.018;4.202;2023-11-21T13:30:12;2.30;;;1.90;;
17864;SDS011;9058;52.018;4.202;2023-11-21T13:32:42;3.25;;;2.40;;
17864;SDS011;9058;52.018;4.202;2023-11-21T13:35:09;5.00;;;2.53;;
17864;SDS011;9058;52.018;4.202;2023-11-21T13:37:46;4.35;;;2.78;;
17864;SDS011;9058;52.018;4.202;2023-11-21T13:40:14;2.92;;;2.47;;
17864;SDS011;9058;52.018;4.202;2023-11-21T13:42:48;4.82;;;3.00;;
17864;SDS011;9058;52.018;4.202;2023-11-21T13:45:21;3.65;;;2.75;;
17864;SDS011;9058;52.018;4.202;2023-11-21T13:47:49;2.92;;;2.58;;
17864;SDS011;9058;52.018;4.202;2023-11-21T13:50:19;3.72;;;2.55;;
17864;SDS011;9058;52.018;4.202;2023-11-21T13:52:51;3.10;;;2.50;;
17864;SDS011;9058;52.018;4.202;2023-11-21T13:55:19;3.53;;;2.50;;
17864;SDS011;9058;52.018;4.202;2023-11-21T13:57:50;2.63;;;2.33;;
17864;SDS011;9058;52.018;4.202;2023-11-21T14:00:18;4.20;;;2.60;;
17864;SDS011;9058;52.018;4.202;2023-11-21T14:03:10;3.70;;;2.45;;
17864;SDS011;9058;52.018;4.202;2023-11-21T14:05:44;4.15;;;2.30;;
17864;SDS011;9058;52.018;4.202;2023-11-21T14:08:12;2.15;;;1.73;;
17864;SDS011;9058;52.018;4.202;2023-11-21T14:10:41;2.45;;;2.10;;
17864;SDS011;9058;52.018;4.202;2023-11-21T14:13:09;1.80;;;1.70;;
17864;SDS011;9058;52.018;4.202;2023-11-21T14:15:36;2.63;;;1.42;;
17864;SDS011;9058;52.018;4.202;2023-11-21T14:18:06;2.42;;;1.80;;
17864;SDS011;9058;52.018;4.202;2023-11-21T14:20:37;3.13;;;2.10;;
17864;SDS011;9058;52.018;4.202;2023-11-21T14:23:05;3.72;;;1.90;;
17864;SDS011;9058;52.018;4.202;2023-11-21T14:25:31;4.35;;;2.53;;
17864;SDS011;9058;52.018;4.202;2023-11-21T14:27:58;3.65;;;2.53;;
17864;SDS011;9058;52.018;4.202;2023-11-21T14:30:25;3.63;;;3.00;;
17864;SDS011;9058;52.018;4.202;2023-11-21T14:32:52;5.70;;;3.67;;
17864;SDS011;9058;52.018;4.202;2023-11-21T14:35:18;3.72;;;3.13;;
17864;SDS011;9058;52.018;4.202;2023-11-21T14:37:47;4.28;;;3.28;;
17864;SDS011;9058;52.018;4.202;2023-11-21T14:40:14;4.63;;;3.22;;
17864;SDS011;9058;52.018;4.202;2023-11-21T14:42:44;4.00;;;3.60;;
17864;SDS011;9058;52.018;4.202;2023-11-21T14:45:12;4.10;;;2.78;;
17864;SDS011;9058;52.018;4.202;2023-11-21T14:47:44;3.50;;;3.20;;
17864;SDS011;9058;52.018;4.202;2023-11-21T14:50:19;3.55;;;2.83;;
17864;SDS011;9058;52.018;4.202;2023-11-21T14:53:01;4.72;;;3.80;;
17864;SDS011;9058;52.018;4.202;2023-11-21T14:55:31;5.13;;;3.63;;
17864;SDS011;9058;52.018;4.202;2023-11-21T14:57:57;3.92;;;3.08;;
17864;SDS011;9058;52.018;4.202;2023-11-21T15:00:28;4.25;;;3.30;;
17864;SDS011;9058;52.018;4.202;2023-11-21T15:03:09;4.53;;;3.95;;